createdAt,value
2022-08-28T00:00:15.445Z,11.40
2022-08-28T00:00:46.841Z,11.13
2022-08-28T00:01:18.249Z,11.05
2022-08-28T00:01:49.964Z,12.15
2022-08-28T00:02:23.071Z,11.98
2022-08-28T00:02:55.377Z,11.80
2022-08-28T00:03:27.867Z,12.65
2022-08-28T00:04:01.911Z,11.75
2022-08-28T00:04:33.381Z,11.70
2022-08-28T00:05:06.323Z,11.88
2022-08-28T00:05:38.254Z,12.18
2022-08-28T00:06:10.408Z,11.30
2022-08-28T00:06:41.837Z,11.75
2022-08-28T00:07:13.237Z,11.40
2022-08-28T00:07:47.764Z,12.02
2022-08-28T00:08:19.604Z,12.07
2022-08-28T00:08:51.054Z,11.60
2022-08-28T00:09:22.524Z,10.48
2022-08-28T00:09:53.898Z,11.38
2022-08-28T00:10:26.280Z,11.23
2022-08-28T00:10:57.908Z,11.02
2022-08-28T00:11:29.403Z,11.00
2022-08-28T00:12:01.393Z,10.88
2022-08-28T00:12:33.007Z,10.93
2022-08-28T00:13:04.411Z,10.18
2022-08-28T00:13:35.819Z,10.53
2022-08-28T00:14:09.239Z,11.70
2022-08-28T00:14:40.735Z,11.82
2022-08-28T00:15:14.276Z,12.05
2022-08-28T00:15:46.878Z,11.70
2022-08-28T00:16:18.420Z,11.27
2022-08-28T00:16:50.592Z,11.00
2022-08-28T00:17:22.033Z,10.90
2022-08-28T00:17:53.449Z,11.47
2022-08-28T00:18:24.920Z,11.00
2022-08-28T00:18:56.358Z,10.48
2022-08-28T00:19:27.757Z,11.93
2022-08-28T00:19:59.226Z,10.82
2022-08-28T00:20:31.145Z,11.25
2022-08-28T00:21:02.727Z,11.77
2022-08-28T00:21:34.123Z,9.48
2022-08-28T00:22:06.313Z,11.77
2022-08-28T00:22:38.165Z,12.00
2022-08-28T00:23:09.705Z,10.32
2022-08-28T00:23:42.704Z,11.00
2022-08-28T00:24:14.795Z,10.85
2022-08-28T00:24:46.235Z,10.77
2022-08-28T00:25:18.448Z,11.25
2022-08-28T00:25:49.843Z,10.93
2022-08-28T00:26:21.337Z,10.25
2022-08-28T00:26:52.751Z,10.88
2022-08-28T00:27:24.155Z,10.75
2022-08-28T00:27:56.412Z,11.70
2022-08-28T00:28:27.963Z,11.23
2022-08-28T00:28:59.633Z,10.25
2022-08-28T00:29:31.147Z,10.50
2022-08-28T00:30:03.199Z,10.55
2022-08-28T00:30:36.434Z,11.40
2022-08-28T00:31:07.850Z,10.93
2022-08-28T00:31:39.363Z,11.15
2022-08-28T00:32:10.836Z,11.30
2022-08-28T00:32:42.427Z,11.85
2022-08-28T00:33:13.815Z,11.73
2022-08-28T00:33:47.524Z,11.20
2022-08-28T00:34:19.551Z,10.18
2022-08-28T00:34:59.872Z,10.95
2022-08-28T00:35:31.537Z,11.40
2022-08-28T00:36:03.705Z,10.95
2022-08-28T00:36:35.941Z,11.45
2022-08-28T00:37:07.344Z,11.85
2022-08-28T00:37:38.953Z,11.43
2022-08-28T00:38:10.887Z,11.20
2022-08-28T00:38:42.459Z,11.50
2022-08-28T00:39:14.119Z,11.25
2022-08-28T00:39:49.154Z,11.47
2022-08-28T00:40:30.494Z,12.38
2022-08-28T00:41:04.376Z,11.52
2022-08-28T00:41:37.754Z,11.50
2022-08-28T00:42:12.611Z,10.85
2022-08-28T00:42:44.908Z,10.95
2022-08-28T00:43:25.634Z,11.93
2022-08-28T00:44:09.210Z,10.77
2022-08-28T00:44:40.729Z,11.57
2022-08-28T00:45:12.244Z,11.52
2022-08-28T00:45:43.850Z,11.18
2022-08-28T00:46:22.697Z,11.00
2022-08-28T00:46:55.241Z,9.85
2022-08-28T00:47:26.678Z,11.55
2022-08-28T00:47:58.113Z,11.55
2022-08-28T00:48:29.821Z,10.05
2022-08-28T00:49:01.212Z,10.77
2022-08-28T00:49:34.135Z,10.60
2022-08-28T00:50:06.786Z,11.60
2022-08-28T00:50:38.191Z,11.27
2022-08-28T00:51:09.872Z,10.38
2022-08-28T00:51:41.333Z,11.07
2022-08-28T00:52:12.964Z,11.70
2022-08-28T00:52:49.043Z,11.52
2022-08-28T00:53:21.078Z,11.73
2022-08-28T00:53:58.747Z,11.80
2022-08-28T00:54:31.765Z,10.98
2022-08-28T00:55:05.736Z,10.60
2022-08-28T00:55:37.128Z,11.02
2022-08-28T00:56:13.347Z,11.23
2022-08-28T00:56:45.020Z,10.18
2022-08-28T00:57:19.868Z,11.10
2022-08-28T00:57:53.750Z,11.27
2022-08-28T00:58:25.185Z,11.30
2022-08-28T00:58:58.242Z,10.30
2022-08-28T00:59:29.650Z,10.23
2022-08-28T01:00:01.057Z,10.30
2022-08-28T01:00:34.047Z,11.55
2022-08-28T01:01:05.615Z,10.55
2022-08-28T01:01:37.270Z,10.73
2022-08-28T01:02:08.710Z,11.52
2022-08-28T01:02:40.260Z,11.60
2022-08-28T01:03:11.796Z,10.23
2022-08-28T01:03:43.390Z,11.35
2022-08-28T01:04:17.116Z,10.63
2022-08-28T01:04:48.820Z,28.48
2022-08-28T01:05:20.664Z,24.40
2022-08-28T01:05:52.258Z,16.23
2022-08-28T01:06:23.741Z,13.43
2022-08-28T01:06:56.554Z,11.82
2022-08-28T01:07:28.380Z,11.02
2022-08-28T01:08:00.149Z,11.50
2022-08-28T01:08:32.378Z,11.57
2022-08-28T01:09:04.315Z,10.65
2022-08-28T01:09:38.301Z,11.68
2022-08-28T01:10:11.806Z,10.73
2022-08-28T01:10:44.709Z,10.48
2022-08-28T01:11:17.230Z,12.13
2022-08-28T01:11:49.704Z,10.95
2022-08-28T01:12:23.358Z,11.05
2022-08-28T01:12:54.981Z,11.30
2022-08-28T01:13:26.656Z,12.20
2022-08-28T01:13:58.780Z,11.15
2022-08-28T01:14:36.031Z,10.77
2022-08-28T01:15:09.475Z,12.23
2022-08-28T01:15:41.044Z,11.68
2022-08-28T01:16:13.074Z,10.90
2022-08-28T01:16:45.015Z,11.32
2022-08-28T01:17:17.549Z,12.15
2022-08-28T01:17:50.838Z,12.25
2022-08-28T01:18:22.626Z,11.48
2022-08-28T01:18:54.744Z,11.57
2022-08-28T01:19:30.959Z,10.75
2022-08-28T01:20:05.099Z,11.30
2022-08-28T01:20:38.136Z,11.15
2022-08-28T01:21:38.906Z,11.07
2022-08-28T01:22:28.575Z,10.90
2022-08-28T01:23:05.212Z,10.95
2022-08-28T01:23:47.765Z,10.57
2022-08-28T01:24:19.311Z,10.32
2022-08-28T01:24:52.433Z,10.73
2022-08-28T01:25:24.336Z,11.20
2022-08-28T01:25:57.468Z,11.70
2022-08-28T01:26:29.690Z,10.03
2022-08-28T01:27:01.100Z,11.07
2022-08-28T01:27:32.538Z,11.48
2022-08-28T01:28:05.762Z,11.40
2022-08-28T01:28:37.970Z,10.20
2022-08-28T01:29:09.480Z,11.70
2022-08-28T01:29:40.908Z,10.98
2022-08-28T01:30:17.820Z,11.77
2022-08-28T01:30:49.272Z,11.05
2022-08-28T01:31:21.094Z,11.07
2022-08-28T01:31:52.539Z,11.20
2022-08-28T01:32:31.665Z,10.55
2022-08-28T01:33:03.089Z,11.07
2022-08-28T01:33:34.529Z,12.10
2022-08-28T01:34:06.731Z,10.65
2022-08-28T01:34:38.122Z,11.70
2022-08-28T01:35:11.419Z,10.93
2022-08-28T01:35:44.878Z,10.80
2022-08-28T01:36:16.580Z,11.05
2022-08-28T01:36:48.003Z,10.43
2022-08-28T01:37:19.492Z,10.60
2022-08-28T01:37:51.158Z,11.48
2022-08-28T01:38:26.767Z,10.93
2022-08-28T01:39:03.776Z,10.55
2022-08-28T01:39:35.186Z,11.27
2022-08-28T01:40:07.876Z,12.25
2022-08-28T01:40:40.847Z,12.50
2022-08-28T01:41:12.679Z,11.10
2022-08-28T01:41:45.063Z,11.18
2022-08-28T01:42:16.490Z,12.23
2022-08-28T01:42:47.861Z,11.10
2022-08-28T01:43:20.724Z,11.68
2022-08-28T01:43:52.162Z,11.55
2022-08-28T01:44:25.024Z,11.45
2022-08-28T01:44:56.637Z,11.48
2022-08-28T01:45:28.018Z,10.50
2022-08-28T01:46:01.689Z,11.40
2022-08-28T01:46:33.208Z,12.45
2022-08-28T01:47:04.706Z,10.73
2022-08-28T01:47:36.112Z,11.25
2022-08-28T01:48:08.606Z,11.13
2022-08-28T01:48:41.841Z,10.63
2022-08-28T01:49:13.793Z,11.45
2022-08-28T01:49:45.198Z,10.05
2022-08-28T01:50:18.188Z,10.98
2022-08-28T01:50:49.746Z,10.48
2022-08-28T01:51:24.509Z,11.25
2022-08-28T01:51:56.393Z,10.55
2022-08-28T01:52:28.306Z,10.63
2022-08-28T01:52:59.925Z,11.05
2022-08-28T01:53:32.701Z,10.77
2022-08-28T01:54:04.765Z,10.93
2022-08-28T01:54:36.244Z,10.50
2022-08-28T01:55:11.471Z,11.77
2022-08-28T01:55:43.188Z,11.13
2022-08-28T01:56:16.231Z,11.25
2022-08-28T01:56:47.631Z,9.98
2022-08-28T01:57:19.027Z,10.73
2022-08-28T01:57:54.567Z,10.57
2022-08-28T01:58:26.691Z,11.80
2022-08-28T01:59:01.005Z,10.98
2022-08-28T01:59:32.389Z,11.02
2022-08-28T02:00:04.019Z,11.13
2022-08-28T02:00:36.161Z,11.05
2022-08-28T02:01:11.243Z,10.55
2022-08-28T02:01:43.836Z,11.43
2022-08-28T02:02:15.294Z,9.85
2022-08-28T02:02:46.696Z,11.23
2022-08-28T02:03:18.238Z,11.93
2022-08-28T02:03:49.697Z,11.18
2022-08-28T02:04:21.416Z,10.48
2022-08-28T02:05:03.182Z,10.82
2022-08-28T02:05:34.970Z,11.05
2022-08-28T02:06:06.694Z,10.93
2022-08-28T02:06:38.108Z,10.85
2022-08-28T02:07:09.552Z,11.03
2022-08-28T02:07:40.963Z,10.80
2022-08-28T02:08:12.618Z,11.02
2022-08-28T02:08:44.167Z,11.13
2022-08-28T02:09:15.581Z,11.18
2022-08-28T02:09:46.973Z,10.70
2022-08-28T02:10:19.270Z,10.70
2022-08-28T02:10:50.685Z,12.55
2022-08-28T02:11:22.676Z,11.35
2022-08-28T02:11:54.083Z,10.85
2022-08-28T02:12:25.509Z,11.70
2022-08-28T02:12:59.190Z,11.38
2022-08-28T02:13:30.792Z,11.13
2022-08-28T02:14:02.739Z,11.20
2022-08-28T02:14:34.149Z,10.15
2022-08-28T02:15:06.922Z,10.23
2022-08-28T02:15:39.012Z,11.10
2022-08-28T02:16:10.856Z,11.57
2022-08-28T02:16:42.316Z,10.15
2022-08-28T02:17:13.711Z,11.45
2022-08-28T02:17:45.298Z,10.75
2022-08-28T02:18:16.715Z,11.45
2022-08-28T02:18:48.191Z,10.90
2022-08-28T02:19:19.604Z,11.15
2022-08-28T02:19:51.003Z,11.05
2022-08-28T02:20:23.006Z,10.98
2022-08-28T02:20:54.454Z,11.60
2022-08-28T02:21:25.837Z,11.35
2022-08-28T02:21:57.233Z,11.50
2022-08-28T02:22:28.659Z,11.02
2022-08-28T02:23:01.002Z,10.30
2022-08-28T02:23:32.475Z,11.50
2022-08-28T02:24:03.926Z,11.13
2022-08-28T02:24:35.773Z,11.30
2022-08-28T02:25:09.366Z,11.68
2022-08-28T02:25:40.928Z,11.13
2022-08-28T02:26:13.234Z,11.15
2022-08-28T02:26:44.859Z,11.57
2022-08-28T02:27:16.437Z,10.95
2022-08-28T02:27:48.205Z,10.88
2022-08-28T02:28:19.608Z,10.45
2022-08-28T02:28:51.004Z,10.57
2022-08-28T02:29:22.373Z,11.68
2022-08-28T02:29:53.786Z,12.35
2022-08-28T02:30:25.395Z,11.38
2022-08-28T02:30:56.843Z,12.30
2022-08-28T02:31:28.353Z,10.95
2022-08-28T02:31:59.776Z,10.77
2022-08-28T02:32:31.199Z,11.77
2022-08-28T02:33:02.617Z,11.27
2022-08-28T02:33:35.407Z,11.50
2022-08-28T02:34:06.846Z,11.48
2022-08-28T02:34:38.257Z,11.05
2022-08-28T02:35:12.066Z,10.90
2022-08-28T02:35:43.683Z,10.98
2022-08-28T02:36:15.701Z,11.50
2022-08-28T02:36:47.134Z,11.32
2022-08-28T02:37:18.704Z,10.18
2022-08-28T02:37:50.580Z,11.23
2022-08-28T02:38:22.086Z,10.55
2022-08-28T02:38:57.556Z,11.25
2022-08-28T02:39:29.406Z,10.55
2022-08-28T02:40:00.894Z,9.75
2022-08-28T02:40:32.452Z,10.90
2022-08-28T02:41:04.419Z,11.00
2022-08-28T02:41:35.879Z,10.93
2022-08-28T02:42:07.333Z,10.65
2022-08-28T02:42:38.802Z,10.73
2022-08-28T02:43:10.235Z,11.48
2022-08-28T02:43:41.633Z,10.77
2022-08-28T02:44:13.023Z,10.70
2022-08-28T02:44:44.419Z,10.27
2022-08-28T02:45:16.236Z,11.63
2022-08-28T02:45:47.651Z,11.13
2022-08-28T02:46:19.685Z,11.20
2022-08-28T02:46:51.170Z,11.73
2022-08-28T02:47:25.493Z,10.73
2022-08-28T02:47:56.905Z,10.68
2022-08-28T02:48:29.283Z,11.45
2022-08-28T02:49:00.686Z,11.05
2022-08-28T02:49:36.067Z,11.77
2022-08-28T02:50:08.902Z,11.70
2022-08-28T02:50:40.356Z,10.95
2022-08-28T02:51:12.785Z,11.20
2022-08-28T02:51:44.217Z,11.10
2022-08-28T02:52:15.937Z,10.63
2022-08-28T02:52:47.372Z,10.60
2022-08-28T02:53:18.779Z,11.20
2022-08-28T02:53:50.154Z,11.40
2022-08-28T02:54:21.539Z,10.73
2022-08-28T02:54:53.103Z,11.30
2022-08-28T02:55:24.546Z,10.80
2022-08-28T02:55:56.784Z,11.35
2022-08-28T02:56:28.427Z,10.02
2022-08-28T02:56:59.885Z,10.77
2022-08-28T02:57:31.611Z,11.05
2022-08-28T02:58:03.274Z,11.35
2022-08-28T02:58:34.742Z,11.65
2022-08-28T02:59:06.111Z,10.82
2022-08-28T02:59:37.986Z,11.75
2022-08-28T03:00:10.658Z,11.20
2022-08-28T03:00:42.069Z,10.52
2022-08-28T03:01:13.623Z,10.63
2022-08-28T03:01:45.244Z,10.57
2022-08-28T03:02:16.758Z,10.30
2022-08-28T03:02:48.744Z,11.75
2022-08-28T03:03:20.278Z,10.77
2022-08-28T03:03:51.751Z,10.82
2022-08-28T03:04:23.201Z,11.10
2022-08-28T03:04:54.593Z,11.13
2022-08-28T03:05:26.022Z,10.57
2022-08-28T03:05:58.241Z,11.02
2022-08-28T03:06:29.845Z,11.10
2022-08-28T03:07:01.674Z,10.70
2022-08-28T03:07:33.205Z,11.07
2022-08-28T03:08:05.009Z,10.68
2022-08-28T03:08:36.424Z,10.88
2022-08-28T03:09:07.890Z,10.77
2022-08-28T03:09:39.900Z,10.75
2022-08-28T03:10:11.823Z,11.43
2022-08-28T03:10:43.218Z,12.45
2022-08-28T03:11:14.701Z,11.90
2022-08-28T03:11:46.136Z,10.55
2022-08-28T03:12:17.555Z,10.93
2022-08-28T03:12:48.984Z,9.70
2022-08-28T03:13:23.038Z,10.63
2022-08-28T03:13:58.730Z,11.23
2022-08-28T03:14:30.144Z,10.40
2022-08-28T03:15:01.649Z,10.50
2022-08-28T03:15:33.127Z,11.07
2022-08-28T03:16:04.549Z,10.73
2022-08-28T03:16:36.081Z,10.07
2022-08-28T03:17:07.480Z,11.10
2022-08-28T03:17:41.260Z,9.45
2022-08-28T03:18:13.965Z,10.57
2022-08-28T03:18:45.583Z,11.05
2022-08-28T03:19:17.011Z,10.48
2022-08-28T03:19:48.990Z,10.73
2022-08-28T03:20:20.510Z,10.98
2022-08-28T03:20:52.602Z,11.40
2022-08-28T03:21:24.046Z,11.43
2022-08-28T03:21:55.522Z,10.35
2022-08-28T03:22:26.946Z,10.80
2022-08-28T03:22:58.322Z,11.30
2022-08-28T03:23:29.727Z,11.60
2022-08-28T03:24:01.137Z,11.83
2022-08-28T03:24:32.512Z,10.75
2022-08-28T03:25:04.003Z,10.52
2022-08-28T03:25:35.414Z,10.27
2022-08-28T03:26:11.994Z,10.00
2022-08-28T03:26:43.386Z,11.77
2022-08-28T03:27:14.800Z,10.65
2022-08-28T03:27:46.206Z,10.52
2022-08-28T03:28:18.405Z,10.60
2022-08-28T03:28:51.334Z,10.63
2022-08-28T03:29:22.765Z,11.60
2022-08-28T03:29:54.147Z,11.48
2022-08-28T03:30:25.641Z,10.53
2022-08-28T03:30:57.372Z,11.27
2022-08-28T03:31:29.604Z,11.93
2022-08-28T03:32:01.015Z,10.27
2022-08-28T03:32:32.513Z,10.13
2022-08-28T03:33:03.933Z,10.68
2022-08-28T03:33:35.692Z,10.80
2022-08-28T03:34:07.122Z,10.45
2022-08-28T03:34:38.522Z,10.77
2022-08-28T03:35:10.022Z,9.82
2022-08-28T03:35:41.423Z,11.02
2022-08-28T03:36:14.301Z,11.20
2022-08-28T03:36:45.692Z,10.27
2022-08-28T03:37:17.131Z,11.23
2022-08-28T03:37:48.704Z,9.98
2022-08-28T03:38:20.093Z,10.43
2022-08-28T03:38:52.230Z,11.38
2022-08-28T03:39:23.651Z,11.40
2022-08-28T03:39:55.198Z,10.50
2022-08-28T03:40:26.727Z,11.07
2022-08-28T03:40:58.179Z,10.05
2022-08-28T03:41:30.593Z,10.30
2022-08-28T03:42:02.050Z,11.20
2022-08-28T03:42:33.666Z,10.68
2022-08-28T03:43:05.066Z,10.77
2022-08-28T03:43:38.502Z,12.48
2022-08-28T03:44:11.900Z,12.20
2022-08-28T03:44:43.327Z,11.85
2022-08-28T03:45:14.881Z,12.82
2022-08-28T03:45:52.479Z,12.77
2022-08-28T03:46:24.753Z,10.88
2022-08-28T03:46:56.233Z,10.80
2022-08-28T03:47:27.712Z,10.95
2022-08-28T03:48:01.079Z,10.30
2022-08-28T03:48:37.339Z,10.88
2022-08-28T03:49:08.898Z,10.90
2022-08-28T03:49:40.298Z,11.13
2022-08-28T03:50:11.899Z,12.23
2022-08-28T03:50:43.947Z,10.70
2022-08-28T03:51:16.647Z,10.20
2022-08-28T03:51:48.970Z,11.23
2022-08-28T03:52:20.392Z,10.48
2022-08-28T03:52:51.885Z,10.43
2022-08-28T03:53:24.325Z,11.82
2022-08-28T03:53:56.582Z,10.85
2022-08-28T03:54:27.985Z,10.88
2022-08-28T03:54:59.410Z,11.18
2022-08-28T03:55:30.883Z,10.02
2022-08-28T03:56:02.357Z,10.95
2022-08-28T03:56:33.794Z,11.20
2022-08-28T03:57:05.214Z,11.27
2022-08-28T03:57:36.724Z,11.18
2022-08-28T03:58:08.672Z,11.47
2022-08-28T03:58:40.868Z,12.02
2022-08-28T03:59:12.278Z,10.77
2022-08-28T03:59:43.688Z,10.75
2022-08-28T04:00:15.423Z,10.10
2022-08-28T04:00:46.938Z,11.27
2022-08-28T04:01:18.970Z,11.50
2022-08-28T04:01:50.426Z,11.70
2022-08-28T04:02:21.850Z,11.10
2022-08-28T04:02:53.357Z,10.57
2022-08-28T04:03:27.328Z,10.18
2022-08-28T04:03:58.839Z,10.70
2022-08-28T04:04:30.246Z,10.55
2022-08-28T04:05:01.707Z,10.88
2022-08-28T04:05:33.114Z,10.18
2022-08-28T04:06:04.768Z,10.75
2022-08-28T04:06:36.258Z,10.30
2022-08-28T04:07:07.740Z,9.70
2022-08-28T04:07:39.287Z,10.45
2022-08-28T04:08:12.736Z,10.00
2022-08-28T04:08:44.222Z,11.20
2022-08-28T04:09:15.795Z,12.20
2022-08-28T04:09:47.227Z,10.10
2022-08-28T04:10:19.016Z,12.13
2022-08-28T04:10:51.082Z,10.60
2022-08-28T04:11:22.497Z,11.05
2022-08-28T04:11:53.869Z,10.48
2022-08-28T04:12:25.270Z,10.48
2022-08-28T04:12:59.331Z,10.52
2022-08-28T04:13:30.820Z,11.23
2022-08-28T04:14:02.305Z,10.50
2022-08-28T04:14:33.744Z,10.70
2022-08-28T04:15:06.997Z,11.35
2022-08-28T04:15:38.670Z,12.15
2022-08-28T04:16:11.318Z,11.37
2022-08-28T04:16:42.989Z,11.18
2022-08-28T04:17:14.422Z,10.25
2022-08-28T04:17:45.814Z,10.27
2022-08-28T04:18:18.207Z,10.43
2022-08-28T04:18:50.095Z,9.60
2022-08-28T04:19:21.497Z,10.05
2022-08-28T04:19:53.534Z,10.55
2022-08-28T04:20:24.947Z,9.63
2022-08-28T04:21:03.916Z,10.07
2022-08-28T04:21:35.350Z,11.40
2022-08-28T04:22:06.773Z,11.07
2022-08-28T04:22:38.694Z,10.30
2022-08-28T04:23:10.195Z,10.75
2022-08-28T04:23:42.620Z,9.73
2022-08-28T04:24:14.023Z,10.52
2022-08-28T04:24:47.059Z,9.65
2022-08-28T04:25:18.568Z,9.95
2022-08-28T04:25:49.957Z,9.88
2022-08-28T04:26:23.684Z,10.75
2022-08-28T04:26:55.172Z,10.98
2022-08-28T04:27:26.621Z,11.13
2022-08-28T04:27:58.041Z,10.80
2022-08-28T04:28:29.655Z,10.70
2022-08-28T04:29:01.074Z,10.25
2022-08-28T04:29:32.506Z,10.30
2022-08-28T04:30:05.158Z,11.13
2022-08-28T04:30:40.193Z,10.23
2022-08-28T04:31:11.795Z,9.63
2022-08-28T04:31:43.233Z,10.35
2022-08-28T04:32:14.894Z,10.13
2022-08-28T04:32:46.380Z,9.88
2022-08-28T04:33:17.998Z,9.48
2022-08-28T04:33:49.378Z,10.55
2022-08-28T04:34:20.969Z,10.65
2022-08-28T04:34:52.368Z,10.18
2022-08-28T04:35:23.774Z,9.98
2022-08-28T04:35:55.857Z,10.10
2022-08-28T04:36:27.419Z,9.63
2022-08-28T04:36:59.093Z,9.75
2022-08-28T04:37:30.612Z,10.80
2022-08-28T04:38:05.484Z,10.40
2022-08-28T04:38:41.664Z,10.75
2022-08-28T04:39:15.544Z,10.80
2022-08-28T04:39:46.952Z,10.75
2022-08-28T04:40:18.766Z,9.88
2022-08-28T04:40:50.283Z,9.43
2022-08-28T04:41:21.692Z,9.20
2022-08-28T04:41:54.683Z,9.98
2022-08-28T04:42:26.141Z,9.77
2022-08-28T04:42:57.541Z,10.02
2022-08-28T04:43:29.009Z,9.63
2022-08-28T04:44:00.418Z,10.13
2022-08-28T04:44:31.913Z,9.20
2022-08-28T04:45:03.615Z,9.93
2022-08-28T04:45:41.785Z,9.02
2022-08-28T04:46:14.816Z,9.43
2022-08-28T04:46:48.215Z,9.77
2022-08-28T04:47:19.812Z,8.85
2022-08-28T04:47:51.243Z,9.35
2022-08-28T04:48:22.769Z,9.38
2022-08-28T04:48:55.278Z,8.88
2022-08-28T04:49:26.823Z,9.20
2022-08-28T04:49:58.372Z,9.23
2022-08-28T04:50:29.785Z,9.13
2022-08-28T04:51:01.229Z,9.10
2022-08-28T04:51:32.674Z,9.52
2022-08-28T04:52:04.458Z,9.23
2022-08-28T04:52:35.919Z,8.98
2022-08-28T04:53:07.683Z,9.20
2022-08-28T04:53:39.146Z,8.60
2022-08-28T04:54:10.548Z,9.07
2022-08-28T04:54:41.999Z,9.77
2022-08-28T04:55:13.485Z,9.65
2022-08-28T04:55:54.173Z,9.18
2022-08-28T04:56:26.315Z,8.75
2022-08-28T04:56:57.749Z,9.40
2022-08-28T04:57:31.267Z,9.55
2022-08-28T04:58:06.065Z,8.60
2022-08-28T04:58:38.159Z,8.10
2022-08-28T04:59:10.225Z,8.70
2022-08-28T04:59:41.646Z,9.63
2022-08-28T05:00:13.221Z,8.30
2022-08-28T05:00:45.819Z,8.75
2022-08-28T05:01:18.925Z,8.23
2022-08-28T05:01:50.492Z,9.32
2022-08-28T05:02:22.009Z,8.18
2022-08-28T05:02:53.467Z,8.77
2022-08-28T05:03:24.893Z,8.57
2022-08-28T05:03:59.158Z,8.88
2022-08-28T05:04:30.591Z,8.70
2022-08-28T05:05:02.167Z,8.38
2022-08-28T05:05:33.604Z,8.27
2022-08-28T05:06:05.269Z,8.23
2022-08-28T05:06:37.996Z,7.85
2022-08-28T05:07:09.402Z,9.38
2022-08-28T05:07:40.871Z,7.75
2022-08-28T05:08:17.505Z,7.50
2022-08-28T05:08:48.947Z,8.55
2022-08-28T05:09:21.078Z,9.35
2022-08-28T05:09:53.028Z,7.75
2022-08-28T05:10:25.150Z,8.80
2022-08-28T05:10:56.677Z,7.82
2022-08-28T05:11:33.599Z,8.15
2022-08-28T05:12:06.149Z,9.35
2022-08-28T05:12:37.613Z,8.68
2022-08-28T05:13:10.054Z,8.57
2022-08-28T05:13:41.794Z,8.57
2022-08-28T05:14:16.113Z,8.75
2022-08-28T05:14:48.132Z,8.65
2022-08-28T05:15:19.539Z,9.00
2022-08-28T05:15:52.090Z,8.32
2022-08-28T05:16:23.819Z,8.10
2022-08-28T05:16:55.229Z,8.63
2022-08-28T05:17:26.610Z,8.30
2022-08-28T05:18:03.539Z,9.27
2022-08-28T05:18:34.990Z,8.13
2022-08-28T05:19:06.430Z,7.85
2022-08-28T05:19:37.848Z,8.00
2022-08-28T05:20:09.584Z,8.00
2022-08-28T05:20:42.054Z,7.93
2022-08-28T05:21:20.891Z,8.57
2022-08-28T05:21:52.446Z,8.60
2022-08-28T05:22:23.856Z,7.55
2022-08-28T05:22:55.305Z,8.52
2022-08-28T05:23:26.695Z,7.55
2022-08-28T05:23:58.150Z,7.53
2022-08-28T05:24:29.589Z,7.82
2022-08-28T05:25:01.224Z,8.32
2022-08-28T05:25:36.879Z,8.23
2022-08-28T05:26:12.623Z,7.60
2022-08-28T05:26:44.286Z,7.53
2022-08-28T05:27:19.754Z,7.80
2022-08-28T05:27:51.429Z,7.55
2022-08-28T05:28:23.255Z,7.97
2022-08-28T05:28:55.259Z,8.05
2022-08-28T05:29:26.805Z,7.60
2022-08-28T05:30:01.724Z,7.75
2022-08-28T05:30:33.998Z,7.78
2022-08-28T05:31:09.314Z,7.25
2022-08-28T05:31:41.187Z,7.40
2022-08-28T05:32:12.694Z,8.40
2022-08-28T05:32:44.107Z,7.05
2022-08-28T05:33:15.832Z,7.97
2022-08-28T05:33:47.630Z,8.48
2022-08-28T05:34:19.026Z,8.23
2022-08-28T05:34:50.450Z,7.70
2022-08-28T05:35:21.866Z,8.07
2022-08-28T05:35:53.487Z,7.78
2022-08-28T05:36:26.509Z,7.32
2022-08-28T05:37:04.127Z,8.13
2022-08-28T05:37:35.638Z,8.15
2022-08-28T05:38:07.506Z,8.60
2022-08-28T05:38:39.359Z,8.18
2022-08-28T05:39:11.462Z,7.60
2022-08-28T05:39:42.858Z,7.78
2022-08-28T05:40:14.293Z,7.10
2022-08-28T05:40:47.526Z,7.57
2022-08-28T05:41:24.480Z,7.90
2022-08-28T05:41:55.942Z,7.80
2022-08-28T05:42:30.709Z,7.45
2022-08-28T05:43:02.888Z,8.00
2022-08-28T05:43:35.010Z,7.65
2022-08-28T05:44:07.979Z,7.22
2022-08-28T05:44:39.418Z,8.10
2022-08-28T05:45:10.941Z,8.20
2022-08-28T05:45:42.531Z,8.37
2022-08-28T05:46:13.976Z,7.78
2022-08-28T05:46:46.305Z,7.43
2022-08-28T05:47:17.717Z,7.70
2022-08-28T05:47:53.110Z,7.88
2022-08-28T05:48:24.520Z,6.90
2022-08-28T05:48:56.083Z,6.75
2022-08-28T05:49:28.915Z,6.97
2022-08-28T05:50:00.338Z,7.90
2022-08-28T05:50:31.762Z,7.00
2022-08-28T05:51:10.987Z,7.07
2022-08-28T05:51:42.613Z,7.03
2022-08-28T05:52:14.093Z,8.32
2022-08-28T05:52:47.490Z,6.90
2022-08-28T05:53:18.921Z,7.50
2022-08-28T05:53:50.472Z,6.93
2022-08-28T05:54:21.873Z,7.65
2022-08-28T05:54:53.278Z,7.38
2022-08-28T05:55:29.419Z,7.85
2022-08-28T05:56:02.606Z,7.50
2022-08-28T05:56:35.214Z,6.65
2022-08-28T05:57:06.655Z,7.23
2022-08-28T05:57:38.909Z,7.75
2022-08-28T05:58:10.333Z,7.57
2022-08-28T05:58:42.304Z,7.78
2022-08-28T05:59:14.377Z,7.18
2022-08-28T05:59:45.803Z,6.95
2022-08-28T06:00:17.256Z,7.10
2022-08-28T06:00:48.826Z,7.70
2022-08-28T06:01:22.396Z,5.90
2022-08-28T06:01:53.826Z,7.40
2022-08-28T06:02:25.520Z,7.53
2022-08-28T06:02:57.252Z,7.03
2022-08-28T06:03:28.691Z,7.03
2022-08-28T06:04:02.366Z,7.95
2022-08-28T06:04:33.865Z,11.27
2022-08-28T06:05:07.856Z,11.27
2022-08-28T06:05:39.271Z,7.45
2022-08-28T06:06:11.278Z,8.30
2022-08-28T06:06:42.951Z,8.07
2022-08-28T06:07:14.709Z,7.45
2022-08-28T06:07:46.137Z,7.25
2022-08-28T06:08:17.565Z,7.75
2022-08-28T06:08:58.677Z,7.18
2022-08-28T06:09:30.659Z,6.95
2022-08-28T06:10:02.152Z,7.05
2022-08-28T06:10:33.582Z,8.48
2022-08-28T06:11:05.588Z,7.80
2022-08-28T06:11:42.148Z,8.15
2022-08-28T06:12:16.371Z,7.72
2022-08-28T06:12:47.800Z,7.38
2022-08-28T06:13:19.235Z,7.80
2022-08-28T06:13:51.852Z,6.50
2022-08-28T06:14:23.529Z,8.27
2022-08-28T06:14:56.360Z,8.35
2022-08-28T06:15:28.418Z,7.32
2022-08-28T06:15:59.903Z,7.93
2022-08-28T06:16:32.322Z,8.18
2022-08-28T06:17:04.141Z,7.95
2022-08-28T06:17:35.587Z,7.65
2022-08-28T06:18:07.063Z,7.15
2022-08-28T06:18:38.561Z,6.97
2022-08-28T06:19:11.173Z,7.38
2022-08-28T06:19:46.091Z,7.57
2022-08-28T06:20:17.559Z,7.20
2022-08-28T06:20:49.090Z,7.75
2022-08-28T06:21:20.511Z,7.15
2022-08-28T06:21:55.075Z,7.30
2022-08-28T06:22:26.552Z,6.72
2022-08-28T06:22:57.967Z,7.03
2022-08-28T06:23:29.794Z,7.60
2022-08-28T06:24:01.444Z,8.02
2022-08-28T06:24:33.205Z,7.50
2022-08-28T06:25:07.903Z,7.10
2022-08-28T06:25:40.126Z,6.85
2022-08-28T06:26:11.966Z,6.68
2022-08-28T06:26:43.649Z,6.65
2022-08-28T06:27:15.086Z,7.10
2022-08-28T06:27:46.473Z,8.00
2022-08-28T06:28:19.752Z,6.30
2022-08-28T06:28:51.341Z,6.97
2022-08-28T06:29:22.774Z,7.43
2022-08-28T06:29:56.295Z,7.07
2022-08-28T06:30:27.738Z,6.97
2022-08-28T06:31:23.353Z,6.97
2022-08-28T06:31:55.939Z,7.53
2022-08-28T06:32:27.520Z,7.15
2022-08-28T06:32:58.925Z,7.55
2022-08-28T06:33:30.767Z,7.63
2022-08-28T06:34:02.336Z,6.75
2022-08-28T06:34:34.478Z,6.50
2022-08-28T06:35:06.020Z,7.20
2022-08-28T06:35:44.757Z,6.78
2022-08-28T06:36:16.177Z,6.88
2022-08-28T06:36:53.123Z,6.28
2022-08-28T06:37:25.340Z,6.30
2022-08-28T06:37:58.998Z,6.35
2022-08-28T06:38:30.479Z,6.88
2022-08-28T06:39:02.874Z,5.18
2022-08-28T06:39:34.284Z,6.25
2022-08-28T06:40:06.004Z,6.30
2022-08-28T06:40:38.687Z,6.07
2022-08-28T06:41:10.169Z,6.43
2022-08-28T06:41:44.481Z,6.05
2022-08-28T06:42:18.115Z,7.10
2022-08-28T06:42:49.520Z,6.15
2022-08-28T06:43:22.563Z,6.10
2022-08-28T06:43:54.646Z,5.57
2022-08-28T06:44:26.099Z,6.78
2022-08-28T06:44:57.572Z,6.82
2022-08-28T06:45:29.154Z,6.32
2022-08-28T06:46:00.792Z,6.38
2022-08-28T06:46:33.829Z,6.05
2022-08-28T06:47:07.073Z,5.72
2022-08-28T06:47:38.655Z,5.85
2022-08-28T06:48:11.175Z,6.75
2022-08-28T06:48:42.763Z,6.13
2022-08-28T06:49:14.199Z,6.47
2022-08-28T06:49:45.634Z,6.15
2022-08-28T06:50:17.077Z,5.93
2022-08-28T06:50:49.418Z,6.30
2022-08-28T06:51:23.175Z,6.18
2022-08-28T06:51:56.473Z,5.70
2022-08-28T06:52:27.883Z,5.95
2022-08-28T06:52:59.323Z,5.57
2022-08-28T06:53:30.764Z,6.60
2022-08-28T06:54:02.242Z,6.27
2022-08-28T06:54:33.642Z,6.28
2022-08-28T06:55:05.511Z,6.95
2022-08-28T06:55:37.436Z,5.70
2022-08-28T06:56:11.115Z,6.13
2022-08-28T06:56:45.070Z,6.38
2022-08-28T06:57:16.503Z,5.47
2022-08-28T06:57:49.354Z,6.15
2022-08-28T06:58:20.774Z,7.63
2022-08-28T06:58:52.272Z,5.50
2022-08-28T06:59:23.692Z,4.97
2022-08-28T06:59:55.905Z,5.25
2022-08-28T07:00:27.361Z,5.75
2022-08-28T07:01:06.110Z,6.43
2022-08-28T07:01:37.742Z,5.00